Time;durP1;ratioP1;P1;durP2;ratioP2;P2;SDS_P1;SDS_P2;PMS_P1;PMS_P2;Temp;Humidity;BMP_temperature;BMP_pressure;BME280_temperature;BME280_humidity;BME280_pressure;Samples;Min_cycle;Max_cycle;Signal;HPM_P1;HPM_P2
2023/08/01 00:01:55;;;;;;;;;8.80;7.60;;;;;19.12;46.26;98914.19;5071196;28;8881;-73
2023/08/01 00:04:24;;;;;;;;;10.20;9.80;;;;;18.64;48.93;98911.97;5071850;28;8977;-74
2023/08/01 00:06:53;;;;;;;;;14.40;13.40;;;;;18.39;50.04;98917.16;5035494;28;8862;-75
2023/08/01 00:09:22;;;;;;;;;10.00;10.00;;;;;18.56;49.75;98911.63;5071471;28;8858;-74
2023/08/01 00:11:52;;;;;;;;;9.20;9.20;;;;;18.83;47.91;98906.34;5048183;28;8859;-75
2023/08/01 00:14:23;;;;;;;;;9.80;9.00;;;;;18.88;47.98;98912.22;5091305;28;8851;-76
2023/08/01 00:16:52;;;;;;;;;13.00;12.00;;;;;18.97;47.22;98908.09;5081620;28;8862;-78
2023/08/01 00:19:21;;;;;;;;;12.00;12.00;;;;;19.05;47.24;98905.78;5071878;28;9718;-74
2023/08/01 00:21:50;;;;;;;;;13.00;12.20;;;;;19.18;45.69;98897.81;5071000;28;8838;-76
2023/08/01 00:24:19;;;;;;;;;8.20;8.20;;;;;19.33;44.78;98898.59;5069885;28;8842;-76
2023/08/01 00:26:48;;;;;;;;;9.00;9.00;;;;;19.38;44.21;98899.13;5070748;28;9572;-74
2023/08/01 00:29:18;;;;;;;;;9.00;9.00;;;;;19.42;43.66;98889.97;5067805;28;8852;-74
2023/08/01 00:31:47;;;;;;;;;14.20;11.00;;;;;19.29;44.38;98881.09;5055708;28;8859;-75
2023/08/01 00:34:15;;;;;;;;;10.80;10.40;;;;;19.16;44.90;98885.53;5086126;28;9674;-75
2023/08/01 00:36:44;;;;;;;;;9.60;9.60;;;;;19.04;44.59;98888.06;5070488;28;8865;-75
2023/08/01 00:39:13;;;;;;;;;10.20;9.20;;;;;18.94;43.76;98879.84;5052838;28;8846;-77
2023/08/01 00:41:42;;;;;;;;;8.60;8.00;;;;;19.00;43.79;98883.91;5069317;28;8862;-76
2023/08/01 00:44:11;;;;;;;;;8.00;7.20;;;;;18.89;44.82;98881.09;5078972;28;8990;-73
2023/08/01 00:46:41;;;;;;;;;10.20;10.20;;;;;19.00;44.62;98873.25;5089595;28;8882;-75
2023/08/01 00:49:10;;;;;;;;;12.00;9.20;;;;;18.93;45.01;98874.63;5089378;28;8933;-76
2023/08/01 00:51:39;;;;;;;;;7.80;6.60;;;;;18.90;44.58;98874.84;5092004;28;8848;-75
2023/08/01 00:54:08;;;;;;;;;7.80;7.80;;;;;18.95;44.32;98872.72;5098923;28;8851;-77
2023/08/01 00:56:37;;;;;;;;;8.40;7.60;;;;;18.97;43.65;98868.16;5089716;28;8855;-77
2023/08/01 00:59:07;;;;;;;;;5.40;5.40;;;;;19.03;42.51;98867.75;5089145;28;8883;-74
2023/08/01 01:01:37;;;;;;;;;5.80;5.40;;;;;19.10;42.39;98863.72;5076270;28;9687;-75
2023/08/01 01:04:07;;;;;;;;;6.40;6.00;;;;;19.07;42.33;98863.06;5068823;28;8854;-77
2023/08/01 01:06:42;;;;;;;;;7.00;6.00;;;;;19.14;42.50;98859.03;5074110;28;8840;-75
2023/08/01 01:09:17;;;;;;;;;5.40;5.40;;;;;19.33;41.82;98859.47;5088759;28;8863;-74
2023/08/01 01:11:48;;;;;;;;;6.00;6.00;;;;;19.32;42.17;98854.25;5105694;28;8859;-75
2023/08/01 01:14:16;;;;;;;;;6.00;6.00;;;;;19.40;41.93;98856.38;5054310;28;8842;-74
2023/08/01 01:16:45;;;;;;;;;5.40;5.20;;;;;19.47;42.31;98855.00;5068565;28;8843;-75
2023/08/01 01:19:15;;;;;;;;;4.40;4.40;;;;;19.48;41.53;98851.38;5047513;28;8833;-73
2023/08/01 01:21:48;;;;;;;;;5.20;5.20;;;;;19.52;40.97;98852.94;5031069;28;8875;-73
2023/08/01 01:24:28;;;;;;;;;6.20;6.20;;;;;19.54;41.36;98847.47;5049691;28;8843;-73
2023/08/01 01:26:59;;;;;;;;;7.20;6.60;;;;;19.64;41.75;98851.22;5089823;28;8866;-74
2023/08/01 01:29:30;;;;;;;;;6.20;6.20;;;;;19.70;41.24;98842.78;5089808;28;8844;-72
2023/08/01 01:32:01;;;;;;;;;6.00;5.00;;;;;19.71;41.16;98841.81;5071557;28;8844;-72
2023/08/01 01:34:30;;;;;;;;;7.20;6.20;;;;;19.70;41.24;98845.44;5087872;28;8894;-72
2023/08/01 01:37:00;;;;;;;;;8.20;7.40;;;;;19.55;41.73;98846.50;5088324;28;8847;-72
2023/08/01 01:39:29;;;;;;;;;7.00;7.00;;;;;19.47;41.96;98845.19;5085966;28;8933;-73
2023/08/01 01:41:58;;;;;;;;;8.20;7.60;;;;;19.29;42.61;98838.47;5104982;28;8862;-73
2023/08/01 01:44:27;;;;;;;;;7.60;7.60;;;;;19.23;42.65;98837.06;5104556;28;8872;-73
2023/08/01 01:46:56;;;;;;;;;8.60;7.40;;;;;19.20;43.05;98842.63;5053816;28;9632;-73
2023/08/01 01:49:26;;;;;;;;;6.60;6.40;;;;;19.31;42.46;98833.91;5088439;28;8852;-73
2023/08/01 01:51:55;;;;;;;;;7.80;7.40;;;;;19.15;43.03;98839.41;5097838;28;8843;-74
2023/08/01 01:54:27;;;;;;;;;6.80;6.80;;;;;19.07;43.25;98831.94;5066289;28;8905;-75
2023/08/01 01:56:56;;;;;;;;;8.20;7.20;;;;;19.13;43.05;98836.00;5079589;28;8872;-73
2023/08/01 01:59:24;;;;;;;;;7.00;7.00;;;;;19.18;42.68;98828.56;5086598;28;8840;-72
2023/08/01 02:01:54;;;;;;;;;7.40;6.40;;;;;19.26;42.05;98831.53;5052833;28;8832;-75
2023/08/01 02:04:23;;;;;;;;;8.00;8.00;;;;;19.36;42.00;98830.91;5046092;28;8875;-73
2023/08/01 02:06:54;;;;;;;;;7.20;7.20;;;;;19.45;42.20;98831.13;5046430;28;8863;-74
2023/08/01 02:09:23;;;;;;;;;5.80;5.80;;;;;19.26;41.81;98826.22;5029338;28;8848;-72
2023/08/01 02:11:53;;;;;;;;;7.00;7.00;;;;;19.28;41.77;98828.78;5045928;28;8835;-73
2023/08/01 02:14:22;;;;;;;;;6.80;6.80;;;;;19.38;41.81;98823.66;5027400;28;8863;-73
2023/08/01 02:16:51;;;;;;;;;6.80;6.80;;;;;19.24;42.13;98825.47;5046231;28;8828;-73
2023/08/01 02:19:19;;;;;;;;;8.20;7.40;;;;;19.19;42.68;98818.75;5045711;28;8848;-73
2023/08/01 02:21:48;;;;;;;;;7.00;7.00;;;;;19.33;42.32;98824.00;5029487;28;8831;-73
2023/08/01 02:24:17;;;;;;;;;9.40;9.00;;;;;19.37;42.59;98819.31;5028940;28;8847;-73
2023/08/01 02:26:46;;;;;;;;;8.00;8.00;;;;;19.41;42.31;98821.63;5045971;28;8941;-74
2023/08/01 02:29:17;;;;;;;;;9.00;7.20;;;;;19.52;42.34;98824.44;5062809;28;8842;-73
2023/08/01 02:31:46;;;;;;;;;7.40;6.80;;;;;19.62;41.97;98821.97;5048765;28;8862;-73
2023/08/01 02:34:15;;;;;;;;;6.60;6.60;;;;;19.70;42.44;98824.09;5065650;28;8836;-73
2023/08/01 02:36:44;;;;;;;;;10.40;8.80;;;;;19.76;42.57;98813.00;5081113;28;8856;-72
2023/08/01 02:39:13;;;;;;;;;8.40;8.40;;;;;19.75;42.74;98829.13;5065963;28;8941;-72
2023/08/01 02:41:41;;;;;;;;;6.60;6.60;;;;;19.75;42.06;98821.97;5065692;28;8976;-74
2023/08/01 02:44:10;;;;;;;;;7.00;7.00;;;;;19.75;41.87;98810.47;5065477;28;8852;-72
2023/08/01 02:46:41;;;;;;;;;6.80;6.80;;;;;19.77;41.97;98813.88;5093642;28;8840;-72
2023/08/01 02:49:10;;;;;;;;;7.00;7.00;;;;;19.80;42.00;98805.63;5089478;28;8844;-73
2023/08/01 02:51:38;;;;;;;;;8.00;7.20;;;;;19.85;41.85;98812.34;5106190;28;8959;-73
2023/08/01 02:54:07;;;;;;;;;7.40;7.20;;;;;19.87;41.79;98806.91;5089337;28;8848;-75
2023/08/01 02:56:40;;;;;;;;;6.00;6.00;;;;;19.86;41.39;98806.06;5039811;28;8852;-73
2023/08/01 02:59:10;;;;;;;;;8.80;7.80;;;;;19.91;41.40;98811.06;5088974;28;8852;-75
2023/08/01 03:01:41;;;;;;;;;7.00;6.40;;;;;19.93;41.11;98816.28;5101919;28;8832;-74
2023/08/01 03:04:11;;;;;;;;;8.80;7.20;;;;;19.94;40.89;98808.19;5075266;28;8916;-73
2023/08/01 03:06:40;;;;;;;;;6.40;6.40;;;;;19.95;40.54;98806.34;5088623;28;8945;-73
2023/08/01 03:09:09;;;;;;;;;6.00;6.00;;;;;19.93;39.38;98808.28;5088728;28;8881;-74
2023/08/01 03:11:38;;;;;;;;;4.00;4.00;;;;;19.93;38.91;98810.97;5085997;28;8863;-73
2023/08/01 03:14:07;;;;;;;;;4.00;4.00;;;;;19.81;38.24;98810.88;5087405;28;8866;-73
2023/08/01 03:16:37;;;;;;;;;5.80;5.80;;;;;19.79;38.32;98815.47;5067429;28;8875;-73
2023/08/01 03:19:08;;;;;;;;;5.80;5.40;;;;;19.88;38.97;98814.81;5066495;28;8970;-74
2023/08/01 03:21:37;;;;;;;;;5.40;5.40;;;;;19.90;38.04;98814.72;5064168;28;8840;-74
2023/08/01 03:24:08;;;;;;;;;7.20;7.20;;;;;19.94;38.75;98812.69;5103787;28;8848;-73
2023/08/01 03:26:37;;;;;;;;;6.20;6.20;;;;;19.98;39.89;98814.16;5051663;28;8980;-74
2023/08/01 03:29:06;;;;;;;;;8.00;6.80;;;;;20.02;40.07;98811.13;5087693;28;8966;-73
2023/08/01 03:31:35;;;;;;;;;10.20;10.20;;;;;20.08;40.56;98818.72;5087728;28;9507;-75
2023/08/01 03:34:04;;;;;;;;;11.40;10.40;;;;;20.12;40.38;98813.16;5088158;28;8860;-74
2023/08/01 03:36:34;;;;;;;;;9.20;9.20;;;;;20.13;40.60;98810.38;5043075;28;8838;-73
2023/08/01 03:39:04;;;;;;;;;8.00;7.20;;;;;20.14;39.45;98809.44;5081900;28;8851;-76
2023/08/01 03:41:33;;;;;;;;;7.00;6.00;;;;;20.14;39.11;98809.44;5086168;28;8856;-73
2023/08/01 03:44:02;;;;;;;;;5.40;5.40;;;;;20.15;39.85;98807.59;5035582;28;8851;-73
2023/08/01 03:46:31;;;;;;;;;7.80;7.80;;;;;20.19;39.66;98817.09;5108409;27;9758;-74
2023/08/01 03:49:00;;;;;;;;;9.00;8.20;;;;;20.23;39.19;98821.25;5108676;27;8938;-74
2023/08/01 03:51:29;;;;;;;;;8.20;8.00;;;;;20.27;39.23;98814.72;5108837;27;8879;-73
2023/08/01 03:53:59;;;;;;;;;7.40;7.40;;;;;20.29;39.07;98811.00;5095874;28;8852;-74
2023/08/01 03:56:43;;;;;;;;;6.80;6.00;;;;;20.35;38.68;98803.50;5084489;28;8904;-74
2023/08/01 03:59:12;;;;;;;;;5.20;4.60;;;;;20.42;39.37;98808.25;5091551;28;8856;-72
2023/08/01 04:01:42;;;;;;;;;5.00;5.00;;;;;20.46;39.36;98801.75;5092163;28;8839;-74
2023/08/01 04:04:11;;;;;;;;;7.00;7.00;;;;;20.55;40.08;98794.88;5092369;28;8867;-74
2023/08/01 04:06:40;;;;;;;;;13.60;12.40;;;;;20.57;39.07;98797.44;5092071;28;8851;-75
2023/08/01 04:09:10;;;;;;;;;25.00;24.20;;;;;20.65;40.24;98800.38;5108891;28;8855;-73
2023/08/01 04:11:39;;;;;;;;;13.00;12.00;;;;;20.73;40.41;98798.00;5096879;28;8870;-73
2023/08/01 04:14:08;;;;;;;;;8.00;8.00;;;;;20.81;40.12;98797.41;5095447;28;8858;-73
2023/08/01 04:16:37;;;;;;;;;6.80;6.80;;;;;20.90;39.51;98793.16;5038913;28;9037;-73
2023/08/01 04:19:06;;;;;;;;;8.80;7.80;;;;;20.96;39.10;98792.75;5068094;28;8906;-74
2023/08/01 04:21:35;;;;;;;;;11.40;11.40;;;;;21.05;39.40;98794.72;5068123;28;8840;-73
2023/08/01 04:24:04;;;;;;;;;13.20;13.00;;;;;21.12;39.87;98795.09;5034844;28;8970;-74
2023/08/01 04:26:36;;;;;;;;;15.80;13.00;;;;;21.16;40.10;98794.75;5050727;28;8939;-72
2023/08/01 04:29:06;;;;;;;;;13.80;13.80;;;;;21.22;39.66;98796.94;5070976;28;8948;-75
2023/08/01 04:31:34;;;;;;;;;16.00;16.00;;;;;21.26;38.91;98798.41;5071529;28;8844;-73
2023/08/01 04:34:03;;;;;;;;;14.80;14.80;;;;;21.30;39.96;98798.19;5090677;28;8824;-74
2023/08/01 04:36:32;;;;;;;;;13.00;12.20;;;;;21.43;39.92;98796.25;5090858;28;8848;-72
2023/08/01 04:39:01;;;;;;;;;11.00;10.00;;;;;21.53;39.80;98793.69;5090697;28;8929;-74
2023/08/01 04:41:30;;;;;;;;;10.60;9.60;;;;;21.63;40.02;98792.03;5089573;28;8852;-74
2023/08/01 04:44:00;;;;;;;;;13.00;11.80;;;;;21.68;39.26;98789.00;5090908;28;8848;-73
2023/08/01 04:46:29;;;;;;;;;10.20;10.20;;;;;21.72;39.26;98785.09;5073789;28;8852;-73
2023/08/01 04:48:58;;;;;;;;;13.00;10.60;;;;;21.86;39.40;98789.34;5070551;28;8882;-74
2023/08/01 04:51:27;;;;;;;;;10.40;10.40;;;;;21.88;38.52;98787.41;5069961;28;8909;-75
2023/08/01 04:53:56;;;;;;;;;11.20;10.00;;;;;21.94;38.19;98786.91;5068308;28;8923;-77
2023/08/01 04:56:25;;;;;;;;;9.60;8.20;;;;;22.06;38.43;98791.28;5069968;28;8851;-76
2023/08/01 04:58:53;;;;;;;;;12.80;12.40;;;;;22.09;37.06;98788.34;5068950;28;9002;-74
2023/08/01 05:01:24;;;;;;;;;12.40;11.00;;;;;22.20;36.34;98796.38;5069897;28;8851;-73
2023/08/01 05:03:53;;;;;;;;;13.60;13.60;;;;;22.27;37.20;98786.03;5071873;28;8888;-73
2023/08/01 05:06:22;;;;;;;;;12.20;12.00;;;;;22.40;37.31;98792.06;5078484;28;8858;-73
2023/08/01 05:08:50;;;;;;;;;17.00;15.80;;;;;22.44;37.50;98789.16;5069443;28;9580;-75
2023/08/01 05:11:19;;;;;;;;;12.20;12.20;;;;;22.53;36.95;98791.91;5069169;28;9670;-77
2023/08/01 05:13:48;;;;;;;;;15.20;15.20;;;;;22.61;37.04;98789.44;5066648;28;8838;-80
2023/08/01 05:16:17;;;;;;;;;14.00;12.60;;;;;22.68;36.94;98789.78;5069880;28;8858;-82
2023/08/01 05:18:47;;;;;;;;;15.80;15.40;;;;;22.84;36.77;98780.47;5068335;28;9592;-78
2023/08/01 05:21:16;;;;;;;;;13.00;13.00;;;;;22.89;36.97;98781.81;5066620;28;8879;-75
2023/08/01 05:23:44;;;;;;;;;14.20;14.20;;;;;22.95;35.79;98781.28;5090354;28;8847;-74
2023/08/01 05:26:13;;;;;;;;;10.00;9.20;;;;;22.97;35.23;98781.16;5089924;28;8852;-74
2023/08/01 05:28:42;;;;;;;;;8.00;8.00;;;;;22.63;35.97;98778.59;5085132;28;8939;-76
2023/08/01 05:31:11;;;;;;;;;9.20;8.40;;;;;22.67;36.01;98780.03;5069408;28;8826;-76
2023/08/01 05:33:40;;;;;;;;;10.20;9.20;;;;;22.87;36.11;98777.53;5069171;28;8888;-76
2023/08/01 05:36:11;;;;;;;;;5.40;5.00;;;;;23.18;34.77;98773.94;5078763;28;8944;-75
2023/08/01 05:38:39;;;;;;;;;8.00;6.80;;;;;23.42;34.40;98777.34;5052730;28;8864;-79
2023/08/01 05:41:08;;;;;;;;;10.40;10.40;;;;;23.60;34.63;98778.41;5069758;28;8843;-75
2023/08/01 05:43:37;;;;;;;;;6.60;6.60;;;;;23.77;33.81;98777.81;5069154;28;8892;-75
2023/08/01 05:46:06;;;;;;;;;9.00;9.00;;;;;23.53;34.32;98779.97;5069643;28;8842;-79
2023/08/01 05:48:34;;;;;;;;;7.00;5.00;;;;;23.86;33.38;98770.75;5068860;28;8993;-78
2023/08/01 05:51:03;;;;;;;;;6.60;5.80;;;;;24.09;32.75;98771.41;5069499;28;8885;-77
2023/08/01 05:53:34;;;;;;;;;11.20;10.40;;;;;24.15;32.60;98762.81;5070788;28;8847;-75
2023/08/01 05:56:04;;;;;;;;;8.20;8.20;;;;;24.30;32.86;98771.31;5070058;28;8862;-78
2023/08/01 05:58:33;;;;;;;;;5.60;5.60;;;;;24.17;32.20;98768.06;5068776;28;8866;-76
2023/08/01 06:01:02;;;;;;;;;6.20;5.20;;;;;24.40;32.40;98765.97;5069480;28;8862;-76
2023/08/01 06:03:30;;;;;;;;;9.00;9.00;;;;;24.62;32.04;98772.03;5067485;28;8846;-74
2023/08/01 06:06:00;;;;;;;;;7.20;7.20;;;;;24.79;32.29;98767.81;5069038;28;9046;-79
2023/08/01 06:08:28;;;;;;;;;10.40;9.60;;;;;24.86;31.81;98766.28;5068671;28;8984;-75
2023/08/01 06:10:59;;;;;;;;;9.00;7.80;;;;;24.66;32.32;98768.06;5068164;28;8874;-76
2023/08/01 06:13:27;;;;;;;;;10.60;10.60;;;;;24.83;33.04;98770.09;5067144;28;8954;-71
2023/08/01 06:15:56;;;;;;;;;12.60;11.80;;;;;24.80;32.29;98764.16;5068022;28;8847;-74
2023/08/01 06:18:25;;;;;;;;;4.80;4.80;;;;;24.87;30.50;98765.28;5067089;28;8859;-73
2023/08/01 06:20:54;;;;;;;;;7.80;7.00;;;;;24.98;30.97;98769.66;5067264;28;8858;-72
2023/08/01 06:23:22;;;;;;;;;6.00;6.00;;;;;24.83;31.73;98766.53;5068246;28;8854;-72
2023/08/01 06:25:51;;;;;;;;;5.20;5.20;;;;;24.89;31.18;98761.47;5033108;28;8878;-72
2023/08/01 06:28:21;;;;;;;;;5.80;5.80;;;;;25.10;30.79;98765.81;5066975;28;8901;-72
2023/08/01 06:30:50;;;;;;;;;7.80;7.80;;;;;24.96;30.93;98769.78;5068038;28;8870;-72
2023/08/01 06:33:19;;;;;;;;;7.80;7.40;;;;;25.02;30.86;98768.34;5066690;28;8858;-72
2023/08/01 06:35:48;;;;;;;;;7.40;7.00;;;;;25.29;30.37;98765.75;5067701;28;9608;-74
2023/08/01 06:38:16;;;;;;;;;4.80;4.80;;;;;25.29;29.70;98760.38;5068861;28;8870;-73
2023/08/01 06:40:45;;;;;;;;;4.00;4.00;;;;;25.46;29.59;98763.34;5066215;28;8842;-75
2023/08/01 06:43:14;;;;;;;;;5.40;5.40;;;;;25.60;29.38;98765.53;5067335;28;8951;-72
2023/08/01 06:45:44;;;;;;;;;2.20;2.20;;;;;25.70;29.34;98760.13;5068263;28;8858;-71
2023/08/01 06:48:13;;;;;;;;;4.00;4.00;;;;;25.68;29.43;98768.34;5067982;28;8862;-74
2023/08/01 06:50:42;;;;;;;;;4.40;3.80;;;;;25.77;29.29;98763.06;5067514;28;8934;-78
2023/08/01 06:53:10;;;;;;;;;4.00;4.00;;;;;25.84;28.96;98753.41;5050597;28;9596;-80
2023/08/01 06:55:39;;;;;;;;;7.20;5.20;;;;;25.93;29.03;98759.75;5067524;28;8903;-80
2023/08/01 06:58:08;;;;;;;;;3.80;3.80;;;;;25.95;29.06;98760.47;5068980;28;8858;-79
2023/08/01 07:00:37;;;;;;;;;4.00;4.00;;;;;26.07;28.82;98754.69;5069589;28;8850;-78
2023/08/01 07:03:07;;;;;;;;;4.00;4.00;;;;;25.93;28.97;98751.66;5068807;28;8858;-79
2023/08/01 07:05:36;;;;;;;;;5.40;5.40;;;;;25.77;29.19;98755.81;5069982;28;10048;-83
2023/08/01 07:08:05;;;;;;;;;4.80;4.80;;;;;25.37;29.07;98754.28;5070672;28;8854;-79
2023/08/01 07:10:35;;;;;;;;;5.80;5.80;;;;;25.75;29.85;98757.81;5067223;28;8850;-79
2023/08/01 07:13:04;;;;;;;;;5.00;4.80;;;;;25.96;30.21;98746.81;5067735;28;9492;-79
2023/08/01 07:15:34;;;;;;;;;5.00;4.40;;;;;26.14;30.07;98744.19;5051111;28;9630;-82
2023/08/01 07:18:03;;;;;;;;;4.60;4.60;;;;;26.29;29.86;98748.03;5051046;28;8947;-78
2023/08/01 07:20:33;;;;;;;;;4.40;4.40;;;;;26.47;29.67;98752.59;5066176;28;8878;-79
2023/08/01 07:23:02;;;;;;;;;2.80;1.80;;;;;26.62;29.52;98752.91;5065858;28;8981;-80
2023/08/01 07:25:31;;;;;;;;;5.00;5.00;;;;;26.58;28.83;98752.38;5033038;28;9581;-80
2023/08/01 07:28:00;;;;;;;;;4.60;4.60;;;;;26.64;28.45;98750.91;5065902;28;8858;-78
2023/08/01 07:30:29;;;;;;;;;4.80;4.80;;;;;26.65;28.20;98752.63;5065783;28;8873;-80
2023/08/01 07:32:57;;;;;;;;;3.40;3.00;;;;;26.67;27.89;98737.97;5067361;28;9727;-80
2023/08/01 07:35:27;;;;;;;;;5.80;4.80;;;;;26.60;28.36;98741.44;5052985;28;8866;-80
2023/08/01 07:37:57;;;;;;;;;4.00;4.00;;;;;26.72;28.50;98734.81;5069728;28;8931;-80
2023/08/01 07:40:26;;;;;;;;;4.40;4.40;;;;;26.78;27.99;98738.75;5053357;28;8835;-78
2023/08/01 07:42:54;;;;;;;;;5.80;5.80;;;;;26.71;27.81;98729.59;5071234;28;8846;-80
2023/08/01 07:45:23;;;;;;;;;5.40;5.40;;;;;26.83;28.03;98737.28;5053634;28;8858;-79
2023/08/01 07:47:52;;;;;;;;;5.80;5.80;;;;;26.94;27.29;98736.16;5071819;28;8944;-78
2023/08/01 07:50:21;;;;;;;;;6.60;6.60;;;;;26.90;27.50;98729.38;5073453;28;8866;-78
2023/08/01 07:52:50;;;;;;;;;8.00;6.40;;;;;26.85;27.19;98739.78;5072560;28;8818;-79
2023/08/01 07:55:21;;;;;;;;;4.00;4.00;;;;;26.93;27.13;98733.59;5071618;28;8931;-79
2023/08/01 07:57:49;;;;;;;;;5.80;5.80;;;;;26.67;27.21;98729.03;5071770;28;8858;-79
2023/08/01 08:00:18;;;;;;;;;4.00;4.00;;;;;26.46;27.35;98732.91;5071330;28;9592;-81
2023/08/01 08:02:47;;;;;;;;;4.00;4.00;;;;;26.48;27.58;98733.59;5071729;28;8866;-80
2023/08/01 08:05:16;;;;;;;;;7.40;5.80;;;;;26.31;27.83;98725.50;5073144;28;8853;-80
2023/08/01 08:07:45;;;;;;;;;8.60;8.60;;;;;26.34;28.14;98728.69;5072923;28;8947;-79
2023/08/01 08:10:14;;;;;;;;;16.20;14.20;;;;;26.17;28.04;98724.16;5071986;28;8850;-81
2023/08/01 08:12:45;;;;;;;;;7.20;6.00;;;;;26.14;28.32;98729.88;5070668;28;8920;-79
2023/08/01 08:15:15;;;;;;;;;3.80;3.80;;;;;26.51;28.11;98729.72;5070952;28;8945;-81
2023/08/01 08:17:44;;;;;;;;;5.20;5.20;;;;;26.71;27.44;98725.03;5071862;28;8878;-79
2023/08/01 08:20:13;;;;;;;;;3.40;3.40;;;;;26.85;27.20;98726.31;5074896;28;8916;-78
2023/08/01 08:22:42;;;;;;;;;5.40;4.80;;;;;27.05;27.12;98722.44;5075669;28;8858;-79
2023/08/01 08:25:10;;;;;;;;;7.60;4.80;;;;;27.17;26.92;98720.31;5070050;28;8854;-79
2023/08/01 08:27:39;;;;;;;;;4.40;4.40;;;;;27.15;26.92;98716.94;5071519;28;8880;-80
2023/08/01 08:30:10;;;;;;;;;5.20;4.80;;;;;27.20;27.12;98714.59;5071608;28;8834;-79
2023/08/01 08:32:39;;;;;;;;;4.60;4.40;;;;;27.36;26.90;98715.69;5071326;28;9012;-81
2023/08/01 08:35:08;;;;;;;;;6.60;6.40;;;;;27.11;27.43;98718.25;5071328;28;8854;-81
2023/08/01 08:37:37;;;;;;;;;5.60;4.40;;;;;26.69;27.81;98712.72;5071478;28;8874;-80
2023/08/01 08:40:07;;;;;;;;;5.80;4.60;;;;;26.93;28.09;98709.34;5071851;28;8830;-79
2023/08/01 08:42:36;;;;;;;;;5.80;4.20;;;;;27.15;27.74;98711.53;5021010;28;8987;-80
2023/08/01 08:45:06;;;;;;;;;5.00;5.00;;;;;27.31;27.61;98701.84;5052500;28;8839;-79
2023/08/01 08:47:42;;;;;;;;;6.40;6.40;;;;;27.41;27.13;98708.81;5071741;28;8848;-78
2023/08/01 08:50:12;;;;;;;;;5.00;5.00;;;;;27.41;26.94;98698.00;5052383;28;9017;-79
2023/08/01 08:52:41;;;;;;;;;6.00;4.80;;;;;27.60;26.85;98686.16;5068322;28;8874;-79
2023/08/01 08:55:11;;;;;;;;;4.40;4.40;;;;;27.52;26.69;98679.84;5069809;28;8935;-79
2023/08/01 08:57:41;;;;;;;;;3.60;3.60;;;;;27.55;26.53;98682.22;5053104;28;8988;-78
2023/08/01 09:00:11;;;;;;;;;3.80;3.80;;;;;27.52;26.61;98674.47;5068003;28;8862;-78
2023/08/01 09:02:41;;;;;;;;;3.80;3.80;;;;;27.47;26.44;98674.94;5068770;28;8906;-79
2023/08/01 09:05:10;;;;;;;;;3.40;2.80;;;;;27.49;26.38;98672.06;5067550;28;8858;-80
2023/08/01 09:07:44;;;;;;;;;3.80;3.80;;;;;27.37;26.55;98660.72;5052524;28;8931;-78
2023/08/01 09:10:13;;;;;;;;;4.80;4.80;;;;;27.44;26.72;98661.78;5068610;28;8877;-77
2023/08/01 09:12:41;;;;;;;;;5.00;4.60;;;;;27.47;26.88;98653.34;5068685;28;8850;-78
2023/08/01 09:15:11;;;;;;;;;5.00;5.00;;;;;27.40;27.05;98650.47;5036135;28;8977;-79
2023/08/01 09:17:50;;;;;;;;;6.00;5.00;;;;;27.32;26.90;98645.00;5068446;28;8839;-78
2023/08/01 09:20:20;;;;;;;;;3.80;3.80;;;;;27.43;26.41;98650.13;5067330;28;8838;-79
2023/08/01 09:22:48;;;;;;;;;3.80;3.80;;;;;27.35;26.95;98646.56;5050321;28;8914;-80
2023/08/01 09:25:17;;;;;;;;;5.20;5.20;;;;;27.49;27.01;98642.38;5057805;28;8846;-78
2023/08/01 09:27:46;;;;;;;;;4.00;4.00;;;;;27.51;26.44;98633.09;5069929;28;8851;-79
2023/08/01 09:30:17;;;;;;;;;5.20;5.20;;;;;27.61;26.39;98636.56;5071236;28;8917;-79
2023/08/01 09:32:54;;;;;;;;;5.20;4.80;;;;;27.75;26.20;98631.53;5070747;28;8859;-81
2023/08/01 09:35:24;;;;;;;;;4.60;4.60;;;;;27.69;25.98;98635.72;5070242;28;8862;-81
2023/08/01 09:37:53;;;;;;;;;7.80;7.00;;;;;27.75;26.39;98632.38;5019682;28;9663;-79
2023/08/01 09:40:22;;;;;;;;;5.60;5.60;;;;;27.57;25.75;98632.50;5071179;28;8959;-78
2023/08/01 09:42:51;;;;;;;;;4.20;4.00;;;;;27.63;25.81;98625.59;5069907;28;8838;-79
2023/08/01 09:45:21;;;;;;;;;4.60;3.00;;;;;27.56;25.79;98619.13;5069823;28;8996;-78
2023/08/01 09:47:49;;;;;;;;;5.40;5.40;;;;;27.69;25.60;98611.44;5069564;28;9596;-79
2023/08/01 09:50:23;;;;;;;;;6.00;5.00;;;;;27.66;25.45;98608.22;5069457;28;8854;-79
2023/08/01 09:52:53;;;;;;;;;4.80;4.80;;;;;27.71;25.44;98606.72;5070583;28;8846;-80
2023/08/01 09:55:27;;;;;;;;;5.80;5.60;;;;;27.73;25.91;98601.16;5069650;28;8969;-79
2023/08/01 09:57:58;;;;;;;;;6.80;6.80;;;;;27.80;26.02;98604.88;5069456;28;9616;-80
2023/08/01 10:00:29;;;;;;;;;6.00;5.60;;;;;27.82;26.30;98601.00;5069367;28;8859;-81
2023/08/01 10:03:00;;;;;;;;;4.80;4.20;;;;;27.85;25.65;98593.56;5070640;28;8882;-80
2023/08/01 10:05:33;;;;;;;;;4.60;4.60;;;;;27.88;26.03;98572.47;5069537;28;8985;-81
2023/08/01 10:08:04;;;;;;;;;5.60;4.20;;;;;27.86;26.18;98584.47;5069752;28;10383;-78
2023/08/01 10:10:33;;;;;;;;;3.80;3.80;;;;;27.97;25.89;98576.03;5050924;28;8874;-79
2023/08/01 10:13:03;;;;;;;;;5.80;4.80;;;;;27.99;24.89;98574.00;5064515;28;8880;-82
2023/08/01 10:15:32;;;;;;;;;6.00;6.00;;;;;28.04;25.07;98568.91;5081550;28;8854;-82
2023/08/01 10:18:02;;;;;;;;;4.60;4.20;;;;;28.03;25.87;98567.25;5053170;28;8850;-79
2023/08/01 10:20:35;;;;;;;;;5.20;5.20;;;;;28.05;26.10;98567.91;5069701;28;8850;-78
2023/08/01 10:23:06;;;;;;;;;5.00;3.80;;;;;28.12;25.30;98563.56;5069978;28;8838;-79
2023/08/01 10:25:35;;;;;;;;;6.60;6.60;;;;;28.02;26.19;98552.03;5075038;28;8830;-79
2023/08/01 10:28:04;;;;;;;;;5.00;5.00;;;;;28.14;26.14;98556.13;5078868;28;8851;-78
2023/08/01 10:30:33;;;;;;;;;5.00;5.00;;;;;28.14;25.45;98555.25;5078083;28;8849;-78
2023/08/01 10:33:02;;;;;;;;;3.60;3.60;;;;;28.16;26.08;98551.41;5068727;28;8894;-80
2023/08/01 10:35:37;;;;;;;;;5.00;5.00;;;;;28.33;25.88;98537.88;5050234;28;8887;-80
2023/08/01 10:38:07;;;;;;;;;4.20;4.20;;;;;28.20;26.06;98546.50;5069443;28;9498;-79
2023/08/01 10:40:37;;;;;;;;;5.40;4.40;;;;;28.29;25.89;98537.38;5070263;28;8842;-79
2023/08/01 10:43:07;;;;;;;;;5.60;5.20;;;;;28.31;26.11;98540.75;5068098;28;8839;-84
2023/08/01 10:45:36;;;;;;;;;4.00;4.00;;;;;28.30;26.41;98528.22;5069266;28;8843;-80
2023/08/01 10:48:09;;;;;;;;;6.00;5.00;;;;;28.41;26.28;98527.03;5033874;28;8835;-79
2023/08/01 10:50:39;;;;;;;;;4.00;4.00;;;;;28.35;26.37;98523.16;5068761;28;8967;-83
2023/08/01 10:53:10;;;;;;;;;4.40;4.40;;;;;28.44;26.63;98523.13;5050793;28;9062;-80
2023/08/01 10:55:41;;;;;;;;;3.40;3.00;;;;;28.40;25.30;98528.91;5069300;28;8862;-80
2023/08/01 10:58:10;;;;;;;;;7.20;6.20;;;;;28.53;25.13;98519.41;5069237;28;8973;-82
2023/08/01 11:00:40;;;;;;;;;10.60;9.60;;;;;28.11;25.10;98517.81;5067348;28;8896;-81
2023/08/01 11:03:08;;;;;;;;;3.00;3.00;;;;;28.25;25.61;98516.25;5066243;28;8871;-79
2023/08/01 11:05:39;;;;;;;;;2.40;2.40;;;;;28.54;25.47;98511.13;5067216;28;9058;-79
2023/08/01 11:08:08;;;;;;;;;4.00;4.00;;;;;28.77;24.58;98510.41;5016006;28;8854;-82
2023/08/01 11:10:37;;;;;;;;;4.20;4.20;;;;;28.86;24.35;98498.53;5066128;28;8851;-81
2023/08/01 11:13:05;;;;;;;;;6.00;4.40;;;;;28.98;24.19;98497.09;5065743;28;8893;-82
2023/08/01 11:15:38;;;;;;;;;3.80;3.80;;;;;29.09;24.27;98487.75;5016776;28;8846;-80
2023/08/01 11:18:10;;;;;;;;;4.40;3.00;;;;;29.22;24.12;98486.34;5016357;28;8843;-79
2023/08/01 11:20:41;;;;;;;;;4.40;4.40;;;;;29.38;24.28;98488.97;5049044;28;8854;-80
2023/08/01 11:23:11;;;;;;;;;6.20;6.20;;;;;29.43;24.22;98480.31;5049960;28;8940;-80
2023/08/01 11:25:42;;;;;;;;;2.20;2.20;;;;;29.67;24.50;98481.97;5066213;28;8850;-81
2023/08/01 11:28:12;;;;;;;;;4.40;4.40;;;;;29.86;24.21;98481.53;5016002;28;8862;-80
2023/08/01 11:30:42;;;;;;;;;4.20;4.20;;;;;30.00;23.96;98473.59;5049412;28;9693;-79
2023/08/01 11:33:15;;;;;;;;;4.00;4.00;;;;;30.12;23.94;98472.97;5065850;28;9048;-81
2023/08/01 11:35:46;;;;;;;;;3.80;3.60;;;;;30.24;23.29;98470.69;5067941;28;8862;-79
2023/08/01 11:38:15;;;;;;;;;4.20;4.20;;;;;30.37;23.06;98463.75;5067917;28;8870;-77
2023/08/01 11:40:44;;;;;;;;;3.60;3.60;;;;;30.47;23.38;98456.19;5049727;28;8847;-80
2023/08/01 11:43:13;;;;;;;;;5.00;5.00;;;;;30.54;23.40;98451.72;5068700;28;8870;-80
2023/08/01 11:45:50;;;;;;;;;2.80;2.80;;;;;30.79;22.96;98452.25;5049754;28;8895;-78
2023/08/01 11:48:19;;;;;;;;;4.00;4.00;;;;;30.86;22.17;98450.47;5066984;28;9609;-81
2023/08/01 11:50:50;;;;;;;;;6.00;6.00;;;;;30.97;21.89;98449.13;5033775;28;8879;-79